createdAt,value
2018-06-18T00:00:07.204Z,16.20
2018-06-18T00:01:07.546Z,16.18
2018-06-18T00:02:07.191Z,16.26
2018-06-18T00:03:07.196Z,16.26
2018-06-18T00:04:08.799Z,16.30
2018-06-18T00:05:07.182Z,16.25
2018-06-18T00:06:07.204Z,16.27
2018-06-18T00:07:07.292Z,16.26
2018-06-18T00:08:07.183Z,16.26
2018-06-18T00:09:07.185Z,16.30
2018-06-18T00:10:07.217Z,16.30
2018-06-18T00:11:07.220Z,16.30
2018-06-18T00:12:07.221Z,16.22
2018-06-18T00:13:07.204Z,16.25
2018-06-18T00:14:07.198Z,16.22
2018-06-18T00:15:07.201Z,16.25
2018-06-18T00:16:07.200Z,16.22
2018-06-18T00:17:07.295Z,16.20
2018-06-18T00:18:07.208Z,16.34
2018-06-18T00:19:07.259Z,16.26
2018-06-18T00:20:07.221Z,16.30
2018-06-18T00:21:07.215Z,16.34
2018-06-18T00:22:07.219Z,16.44
2018-06-18T00:23:07.220Z,16.33
2018-06-18T00:24:07.225Z,16.27
2018-06-18T00:25:07.226Z,16.20
2018-06-18T00:26:07.251Z,16.38
2018-06-18T00:27:07.232Z,16.27
2018-06-18T00:28:07.231Z,16.22
2018-06-18T00:29:07.240Z,16.18
2018-06-18T00:30:07.238Z,16.27
2018-06-18T00:31:07.269Z,16.30
2018-06-18T00:32:07.266Z,16.26
2018-06-18T00:33:07.245Z,16.26
2018-06-18T00:34:07.249Z,16.20
2018-06-18T00:35:07.249Z,16.22
2018-06-18T00:36:07.279Z,16.20
2018-06-18T00:37:07.253Z,16.31
2018-06-18T00:38:07.275Z,16.22
2018-06-18T00:39:07.288Z,16.25
2018-06-18T00:40:07.283Z,16.27
2018-06-18T00:41:07.291Z,16.25
2018-06-18T00:42:07.266Z,16.26
2018-06-18T00:43:07.510Z,16.12
2018-06-18T00:44:07.353Z,16.03
2018-06-18T00:45:07.284Z,16.03
2018-06-18T00:46:07.278Z,15.97
2018-06-18T00:47:07.281Z,15.94
2018-06-18T00:48:07.302Z,15.99
2018-06-18T00:49:07.320Z,15.96
2018-06-18T00:50:07.289Z,15.93
2018-06-18T00:51:07.287Z,15.93
2018-06-18T00:52:07.289Z,15.97
2018-06-18T00:53:07.325Z,15.97
2018-06-18T00:54:07.296Z,15.97
2018-06-18T00:55:07.295Z,16.03
2018-06-18T00:56:07.504Z,15.96
2018-06-18T00:57:07.564Z,16.03
2018-06-18T00:58:07.308Z,15.99
2018-06-18T00:59:07.353Z,15.99
2018-06-18T01:00:07.308Z,16.00
2018-06-18T01:01:07.311Z,15.93
2018-06-18T01:02:07.349Z,15.93
2018-06-18T01:03:07.321Z,15.99
2018-06-18T01:04:07.998Z,15.93
2018-06-18T01:05:07.345Z,15.89
2018-06-18T01:06:07.402Z,15.85
2018-06-18T01:07:07.378Z,16.00
2018-06-18T01:08:07.361Z,15.94
2018-06-18T01:09:07.400Z,16.03
2018-06-18T01:10:07.374Z,15.96
2018-06-18T01:11:07.362Z,15.99
2018-06-18T01:12:07.336Z,15.97
2018-06-18T01:13:07.368Z,15.94
2018-06-18T01:14:07.534Z,15.96
2018-06-18T01:15:08.072Z,15.99
2018-06-18T01:16:07.462Z,15.96
2018-06-18T01:17:07.375Z,16.00
2018-06-18T01:18:07.354Z,15.99
2018-06-18T01:19:07.382Z,15.96
2018-06-18T01:20:07.369Z,15.94
2018-06-18T01:21:07.398Z,16.07
2018-06-18T01:22:07.357Z,16.00
2018-06-18T01:23:07.397Z,16.12
2018-06-18T01:24:07.474Z,16.22
2018-06-18T01:25:07.362Z,16.27
2018-06-18T01:26:07.665Z,16.22
2018-06-18T01:27:07.407Z,16.27
2018-06-18T01:28:07.378Z,16.22
2018-06-18T01:29:07.526Z,16.22
2018-06-18T01:30:10.171Z,16.34
2018-06-18T01:31:08.014Z,16.37
2018-06-18T01:32:08.977Z,16.34
2018-06-18T01:33:07.456Z,16.35
2018-06-18T01:34:16.186Z,16.38
2018-06-18T01:35:07.453Z,16.34
2018-06-18T01:36:07.849Z,16.35
2018-06-18T01:37:09.443Z,16.26
2018-06-18T01:38:09.457Z,16.33
2018-06-18T01:39:07.423Z,16.23
2018-06-18T01:40:07.638Z,16.27
2018-06-18T01:41:07.516Z,16.30
2018-06-18T01:42:07.424Z,16.22
2018-06-18T01:43:07.411Z,16.25
2018-06-18T01:44:07.437Z,16.26
2018-06-18T01:45:09.001Z,16.26
2018-06-18T01:46:07.443Z,16.27
2018-06-18T01:47:07.415Z,16.18
2018-06-18T01:48:07.419Z,16.22
2018-06-18T01:49:07.446Z,16.16
2018-06-18T01:50:07.420Z,16.26
2018-06-18T01:51:07.429Z,16.12
2018-06-18T01:52:07.429Z,16.16
2018-06-18T01:53:07.463Z,16.15
2018-06-18T01:54:07.447Z,16.16
2018-06-18T01:55:07.445Z,16.15
2018-06-18T01:56:07.463Z,16.15
2018-06-18T01:57:07.453Z,16.07
2018-06-18T01:58:07.442Z,15.96
2018-06-18T01:59:07.456Z,16.01
2018-06-18T02:00:07.468Z,16.01
2018-06-18T02:01:07.481Z,16.00
2018-06-18T02:02:07.505Z,15.96
2018-06-18T02:03:07.453Z,15.99
2018-06-18T02:04:07.475Z,15.96
2018-06-18T02:05:07.507Z,16.03
2018-06-18T02:06:07.460Z,15.94
2018-06-18T02:07:07.503Z,16.04
2018-06-18T02:08:07.473Z,15.93
2018-06-18T02:09:07.524Z,15.94
2018-06-18T02:10:07.509Z,15.96
2018-06-18T02:11:07.520Z,15.99
2018-06-18T02:12:07.479Z,15.99
2018-06-18T02:13:07.506Z,16.00
2018-06-18T02:14:07.498Z,15.97
2018-06-18T02:15:07.518Z,15.97
2018-06-18T02:16:07.506Z,15.93
2018-06-18T02:17:09.013Z,15.99
2018-06-18T02:18:07.490Z,16.00
2018-06-18T02:19:07.492Z,15.99
2018-06-18T02:20:07.492Z,15.97
2018-06-18T02:21:07.497Z,15.94
2018-06-18T02:22:07.508Z,15.89
2018-06-18T02:23:07.541Z,15.86
2018-06-18T02:24:07.540Z,15.81
2018-06-18T02:25:07.524Z,15.82
2018-06-18T02:26:07.519Z,15.67
2018-06-18T02:27:07.530Z,15.79
2018-06-18T02:28:07.546Z,15.82
2018-06-18T02:29:07.543Z,15.70
2018-06-18T02:30:07.515Z,15.78
2018-06-18T02:31:07.556Z,15.68
2018-06-18T02:32:07.548Z,15.79
2018-06-18T02:33:07.533Z,15.59
2018-06-18T02:34:07.564Z,15.76
2018-06-18T02:35:07.550Z,15.67
2018-06-18T02:36:07.529Z,15.82
2018-06-18T02:37:07.554Z,15.76
2018-06-18T02:38:07.539Z,15.67
2018-06-18T02:39:07.539Z,15.75
2018-06-18T02:40:07.591Z,15.72
2018-06-18T02:41:07.537Z,15.79
2018-06-18T02:42:07.571Z,15.82
2018-06-18T02:43:07.567Z,15.81
2018-06-18T02:44:07.551Z,15.75
2018-06-18T02:45:07.581Z,15.82
2018-06-18T02:46:07.579Z,15.82
2018-06-18T02:47:07.549Z,15.86
2018-06-18T02:48:07.601Z,15.81
2018-06-18T02:49:07.558Z,15.78
2018-06-18T02:50:07.558Z,15.84
2018-06-18T02:51:07.567Z,15.82
2018-06-18T02:52:07.587Z,15.82
2018-06-18T02:53:07.593Z,15.75
2018-06-18T02:54:07.569Z,15.82
2018-06-18T02:55:07.588Z,15.79
2018-06-18T02:56:07.570Z,15.81
2018-06-18T02:57:07.585Z,15.82
2018-06-18T02:58:07.608Z,15.88
2018-06-18T02:59:07.634Z,15.92
2018-06-18T03:00:07.609Z,15.94
2018-06-18T03:01:07.627Z,15.88
2018-06-18T03:02:08.566Z,15.93
2018-06-18T03:03:07.689Z,15.96
2018-06-18T03:04:07.663Z,15.99
2018-06-18T03:05:07.645Z,15.99
2018-06-18T03:06:07.625Z,15.92
2018-06-18T03:07:07.613Z,15.93
2018-06-18T03:08:07.635Z,15.92
2018-06-18T03:09:07.596Z,15.96
2018-06-18T03:10:07.631Z,15.99
2018-06-18T03:11:07.671Z,15.85
2018-06-18T03:12:07.636Z,15.86
2018-06-18T03:13:07.615Z,15.86
2018-06-18T03:14:07.686Z,16.01
2018-06-18T03:15:07.614Z,15.96
2018-06-18T03:16:07.632Z,16.04
2018-06-18T03:17:07.649Z,15.97
2018-06-18T03:18:07.657Z,15.97
2018-06-18T03:19:07.663Z,15.93
2018-06-18T03:20:07.621Z,15.84
2018-06-18T03:21:07.646Z,15.88
2018-06-18T03:22:07.652Z,15.76
2018-06-18T03:23:07.628Z,15.82
2018-06-18T03:24:07.632Z,15.72
2018-06-18T03:25:07.668Z,15.75
2018-06-18T03:26:07.712Z,15.70
2018-06-18T03:27:07.645Z,15.72
2018-06-18T03:28:07.643Z,15.67
2018-06-18T03:29:07.643Z,15.74
2018-06-18T03:30:07.685Z,15.75
2018-06-18T03:31:07.644Z,15.76
2018-06-18T03:32:07.646Z,15.68
2018-06-18T03:33:07.650Z,15.59
2018-06-18T03:34:07.653Z,15.64
2018-06-18T03:35:07.652Z,15.57
2018-06-18T03:36:07.705Z,15.63
2018-06-18T03:37:07.758Z,15.63
2018-06-18T03:38:07.689Z,15.68
2018-06-18T03:39:07.662Z,15.63
2018-06-18T03:40:07.690Z,15.64
2018-06-18T03:41:07.698Z,15.70
2018-06-18T03:42:07.673Z,15.68
2018-06-18T03:43:07.700Z,15.67
2018-06-18T03:44:07.710Z,15.63
2018-06-18T03:45:07.712Z,15.76
2018-06-18T03:46:07.689Z,15.76
2018-06-18T03:47:07.770Z,15.59
2018-06-18T03:48:07.742Z,15.76
2018-06-18T03:49:07.738Z,15.70
2018-06-18T03:50:07.718Z,15.67
2018-06-18T03:51:07.687Z,15.63
2018-06-18T03:52:07.692Z,15.64
2018-06-18T03:53:07.691Z,15.57
2018-06-18T03:54:07.691Z,15.54
2018-06-18T03:55:07.791Z,15.63
2018-06-18T03:56:07.748Z,15.56
2018-06-18T03:57:07.732Z,15.51
2018-06-18T03:58:07.732Z,15.49
2018-06-18T03:59:07.703Z,15.46
2018-06-18T04:00:07.741Z,15.39
2018-06-18T04:01:07.742Z,15.42
2018-06-18T04:02:07.745Z,15.35
2018-06-18T04:03:07.746Z,15.33
2018-06-18T04:04:07.735Z,15.24
2018-06-18T04:05:07.716Z,15.21
2018-06-18T04:06:07.750Z,15.23
2018-06-18T04:07:07.722Z,15.13
2018-06-18T04:08:07.755Z,15.05
2018-06-18T04:09:07.755Z,15.06
2018-06-18T04:10:07.745Z,15.01
2018-06-18T04:11:07.776Z,15.01
2018-06-18T04:12:07.732Z,15.01
2018-06-18T04:13:07.730Z,15.05
2018-06-18T04:14:07.743Z,15.05
2018-06-18T04:15:07.769Z,14.91
2018-06-18T04:16:07.769Z,15.03
2018-06-18T04:17:07.768Z,15.01
2018-06-18T04:18:09.534Z,15.05
2018-06-18T04:19:07.771Z,15.08
2018-06-18T04:20:07.772Z,15.06
2018-06-18T04:21:07.764Z,15.09
2018-06-18T04:22:07.768Z,15.03
2018-06-18T04:23:07.755Z,15.12
2018-06-18T04:24:07.776Z,15.12
2018-06-18T04:25:07.761Z,15.13
2018-06-18T04:26:07.753Z,15.24
2018-06-18T04:27:07.780Z,15.24
2018-06-18T04:28:07.869Z,15.28
2018-06-18T04:29:07.809Z,15.39
2018-06-18T04:30:07.872Z,15.43
2018-06-18T04:31:07.815Z,15.56
2018-06-18T04:32:07.809Z,15.57
2018-06-18T04:33:07.857Z,15.51
2018-06-18T04:34:07.954Z,15.68
2018-06-18T04:35:07.769Z,15.63
2018-06-18T04:36:07.772Z,15.59
2018-06-18T04:37:07.775Z,15.66
2018-06-18T04:38:07.790Z,15.63
2018-06-18T04:39:07.781Z,15.54
2018-06-18T04:40:07.784Z,15.66
2018-06-18T04:41:07.813Z,15.68
2018-06-18T04:42:07.783Z,15.59
2018-06-18T04:43:07.784Z,15.64
2018-06-18T04:44:07.797Z,15.60
2018-06-18T04:45:07.793Z,15.51
2018-06-18T04:46:07.794Z,15.46
2018-06-18T04:47:07.816Z,15.45
2018-06-18T04:48:07.822Z,15.41
2018-06-18T04:49:07.818Z,15.41
2018-06-18T04:50:07.801Z,15.41
2018-06-18T04:51:07.800Z,15.56
2018-06-18T04:52:07.829Z,15.49
2018-06-18T04:53:07.832Z,15.52
2018-06-18T04:54:09.224Z,15.52
2018-06-18T04:55:08.194Z,15.54
2018-06-18T04:56:08.123Z,15.66
2018-06-18T04:57:08.825Z,15.74
2018-06-18T04:58:08.114Z,15.66
2018-06-18T04:59:08.268Z,15.74
2018-06-18T05:00:08.265Z,15.84
2018-06-18T05:01:08.104Z,15.88
2018-06-18T05:02:08.724Z,15.92
2018-06-18T05:03:08.279Z,15.99
2018-06-18T05:04:08.188Z,16.00
2018-06-18T05:05:07.864Z,15.99
2018-06-18T05:06:08.770Z,16.11
2018-06-18T05:07:08.004Z,16.16
2018-06-18T05:08:07.868Z,16.33
2018-06-18T05:09:08.322Z,16.44
2018-06-18T05:10:08.014Z,16.45
2018-06-18T05:11:08.025Z,16.55
2018-06-18T05:12:07.869Z,16.65
2018-06-18T05:13:07.869Z,16.68
2018-06-18T05:14:07.851Z,16.80
2018-06-18T05:15:07.856Z,16.70
2018-06-18T05:16:07.886Z,16.80
2018-06-18T05:17:07.857Z,16.86
2018-06-18T05:18:07.860Z,16.85
2018-06-18T05:19:07.864Z,16.80
2018-06-18T05:20:07.866Z,16.96
2018-06-18T05:21:07.868Z,16.86
2018-06-18T05:22:07.901Z,16.92
2018-06-18T05:23:07.873Z,16.98
2018-06-18T05:24:07.876Z,17.10
2018-06-18T05:25:07.886Z,17.35
2018-06-18T05:26:07.881Z,17.35
2018-06-18T05:27:07.905Z,17.36
2018-06-18T05:28:07.887Z,17.53
2018-06-18T05:29:07.940Z,17.50
2018-06-18T05:30:07.895Z,17.54
2018-06-18T05:31:07.901Z,17.53
2018-06-18T05:32:07.899Z,17.63
2018-06-18T05:33:07.904Z,17.63
2018-06-18T05:34:08.013Z,17.57
2018-06-18T05:35:07.909Z,17.66
2018-06-18T05:36:07.918Z,17.47
2018-06-18T05:37:07.939Z,17.48
2018-06-18T05:38:07.921Z,17.47
2018-06-18T05:40:32.515Z,17.48
2018-06-18T05:41:34.446Z,17.48
2018-06-18T05:43:58.684Z,17.54
2018-06-18T05:44:51.467Z,17.59
2018-06-18T05:46:45.562Z,17.55
2018-06-18T05:47:44.977Z,17.44
2018-06-18T05:49:38.439Z,17.47
2018-06-18T05:50:38.440Z,17.38
2018-06-18T05:52:30.826Z,17.46
2018-06-18T05:53:31.353Z,17.62
2018-06-18T05:55:23.702Z,17.66
2018-06-18T05:56:23.480Z,17.89
2018-06-18T05:58:16.829Z,17.89
2018-06-18T05:59:16.432Z,17.82
2018-06-18T06:01:10.141Z,17.97
2018-06-18T06:02:09.377Z,17.97
2018-06-18T06:04:03.074Z,17.97
2018-06-18T06:05:02.603Z,17.91
2018-06-18T06:06:56.018Z,17.87
2018-06-18T06:07:55.149Z,17.95
2018-06-18T06:09:48.835Z,17.89
2018-06-18T06:10:49.317Z,17.89
2018-06-18T06:12:42.261Z,18.02
2018-06-18T06:13:42.287Z,17.99
2018-06-18T06:15:35.123Z,17.95
2018-06-18T06:16:34.679Z,18.09
2018-06-18T06:18:28.620Z,18.22
2018-06-18T06:19:27.704Z,18.39
2018-06-18T06:21:21.962Z,18.59
2018-06-18T06:22:20.882Z,18.62
2018-06-18T06:23:21.361Z,18.73
2018-06-18T06:24:21.234Z,18.73
2018-06-18T06:25:21.511Z,18.73
2018-06-18T06:26:20.562Z,18.74
2018-06-18T06:27:20.547Z,18.76
2018-06-18T06:28:20.522Z,18.76
2018-06-18T06:29:20.530Z,18.77
2018-06-18T06:30:20.537Z,18.80
2018-06-18T06:31:20.542Z,18.87
2018-06-18T06:32:20.541Z,18.72
2018-06-18T06:33:20.565Z,18.77
2018-06-18T06:34:20.550Z,18.77
2018-06-18T06:35:20.550Z,18.84
2018-06-18T06:36:20.594Z,18.83
2018-06-18T06:37:20.563Z,18.86
2018-06-18T06:38:20.601Z,18.91
2018-06-18T06:39:20.602Z,18.87
2018-06-18T06:40:20.704Z,18.92
2018-06-18T06:41:20.578Z,18.92
2018-06-18T06:42:20.580Z,19.18
2018-06-18T06:43:20.588Z,19.21
2018-06-18T06:44:20.593Z,19.21
2018-06-18T06:45:20.602Z,19.25
2018-06-18T06:46:20.604Z,19.32
2018-06-18T06:47:20.606Z,19.23
2018-06-18T06:48:20.636Z,19.18
2018-06-18T06:49:20.619Z,19.32
2018-06-18T06:50:20.625Z,19.60
2018-06-18T06:51:20.624Z,19.68
2018-06-18T06:52:20.632Z,19.66
2018-06-18T06:53:20.634Z,19.51
2018-06-18T06:54:20.643Z,19.36
2018-06-18T06:55:20.646Z,19.35
2018-06-18T06:56:20.657Z,19.35
2018-06-18T06:57:20.656Z,19.40
2018-06-18T06:58:20.686Z,19.40
2018-06-18T06:59:20.669Z,19.73
2018-06-18T07:00:20.699Z,19.58
2018-06-18T07:01:20.688Z,19.46
2018-06-18T07:02:20.684Z,19.46
2018-06-18T07:03:20.686Z,19.31
2018-06-18T07:04:20.687Z,19.54
2018-06-18T07:05:20.697Z,19.55
2018-06-18T07:06:20.694Z,19.40
2018-06-18T07:07:20.718Z,19.39
2018-06-18T07:08:20.709Z,19.40
2018-06-18T07:09:20.717Z,19.75
2018-06-18T07:10:20.725Z,20.12
2018-06-18T07:11:20.735Z,20.08
2018-06-18T07:12:20.754Z,20.42
2018-06-18T07:13:20.796Z,20.35
2018-06-18T07:14:20.739Z,20.35
2018-06-18T07:15:20.871Z,20.20
2018-06-18T07:16:20.784Z,20.30
2018-06-18T07:17:20.786Z,21.04
2018-06-18T07:18:20.804Z,21.50
2018-06-18T07:19:20.923Z,22.50
2018-06-18T07:20:20.898Z,22.64
2018-06-18T07:21:20.830Z,23.11
2018-06-18T07:22:20.785Z,23.12
2018-06-18T07:23:20.831Z,23.23
2018-06-18T07:24:20.808Z,22.99
2018-06-18T07:25:20.838Z,23.57
2018-06-18T07:26:20.902Z,24.42
2018-06-18T07:27:20.851Z,24.77
2018-06-18T07:28:20.838Z,24.42
2018-06-18T07:29:20.879Z,24.60
2018-06-18T07:30:20.913Z,24.82
2018-06-18T07:31:20.847Z,24.20
2018-06-18T07:32:20.928Z,23.86
2018-06-18T07:33:20.841Z,23.92
2018-06-18T07:34:20.916Z,23.87
2018-06-18T07:35:20.924Z,23.61
2018-06-18T07:36:20.926Z,23.98
2018-06-18T07:37:20.940Z,24.27
2018-06-18T07:38:20.956Z,24.23
2018-06-18T07:39:20.969Z,24.37
2018-06-18T07:40:20.955Z,24.19
2018-06-18T07:41:20.982Z,24.20
2018-06-18T07:42:20.949Z,24.27
2018-06-18T07:43:20.969Z,24.16
2018-06-18T07:44:21.031Z,24.29
2018-06-18T07:45:20.922Z,24.42
2018-06-18T07:46:20.940Z,24.53
2018-06-18T07:47:20.990Z,24.23
2018-06-18T07:48:21.017Z,24.20
2018-06-18T07:49:21.062Z,24.38
2018-06-18T07:50:21.054Z,24.34
2018-06-18T07:51:21.035Z,23.77
2018-06-18T07:52:21.125Z,23.57
2018-06-18T07:53:21.046Z,23.53
2018-06-18T07:54:21.076Z,23.14
2018-06-18T07:55:21.033Z,23.02
2018-06-18T07:56:21.056Z,22.97
2018-06-18T07:57:21.055Z,22.82
2018-06-18T07:58:21.079Z,22.25
2018-06-18T07:59:21.189Z,22.49
2018-06-18T08:00:21.043Z,22.46
2018-06-18T08:01:21.077Z,22.46
2018-06-18T08:02:21.103Z,22.53
2018-06-18T08:03:21.189Z,22.46
2018-06-18T08:04:21.113Z,22.56
2018-06-18T08:05:21.153Z,22.56
2018-06-18T08:06:21.086Z,22.53
2018-06-18T08:07:21.212Z,22.59
2018-06-18T08:08:21.132Z,22.12
2018-06-18T08:09:21.138Z,22.01
2018-06-18T08:10:21.164Z,21.85
2018-06-18T08:11:21.194Z,21.69
2018-06-18T08:12:21.172Z,21.45
2018-06-18T08:13:21.175Z,21.34
2018-06-18T08:14:21.153Z,21.06
2018-06-18T08:15:21.205Z,20.89
2018-06-18T08:16:21.198Z,20.62
2018-06-18T08:17:21.214Z,20.61
2018-06-18T08:18:21.219Z,20.65
2018-06-18T08:19:21.238Z,20.76
2018-06-18T08:20:21.245Z,20.77
2018-06-18T08:21:21.235Z,20.91
2018-06-18T08:22:21.238Z,21.02
2018-06-18T08:23:21.251Z,21.01
2018-06-18T08:24:21.366Z,20.93
2018-06-18T08:25:21.431Z,20.98
2018-06-18T08:26:21.292Z,21.01
2018-06-18T08:27:21.415Z,21.05
2018-06-18T08:28:21.286Z,21.05
2018-06-18T08:29:21.342Z,21.13
2018-06-18T08:30:21.305Z,21.09
2018-06-18T08:31:21.304Z,21.08
2018-06-18T08:32:21.337Z,21.08
2018-06-18T08:33:21.319Z,21.17
2018-06-18T08:34:21.344Z,21.38
2018-06-18T08:35:21.365Z,21.46
2018-06-18T08:36:21.353Z,21.50
2018-06-18T08:37:21.407Z,21.35
2018-06-18T08:38:21.361Z,21.24
2018-06-18T08:39:21.314Z,21.17
2018-06-18T08:40:21.370Z,21.09
2018-06-18T08:41:21.367Z,21.04
2018-06-18T08:42:21.340Z,20.96
2018-06-18T08:43:21.337Z,20.93
2018-06-18T08:44:21.360Z,20.80
2018-06-18T08:45:21.363Z,20.66
2018-06-18T08:46:21.366Z,20.71
2018-06-18T08:47:21.400Z,20.71
2018-06-18T08:48:21.360Z,20.79
2018-06-18T08:49:21.365Z,20.76
2018-06-18T08:50:21.389Z,20.79
2018-06-18T08:51:21.440Z,20.84
2018-06-18T08:52:21.404Z,20.79
2018-06-18T08:53:21.444Z,20.69
2018-06-18T08:54:21.423Z,20.80
2018-06-18T08:55:21.479Z,20.72
2018-06-18T08:56:21.434Z,20.61
2018-06-18T08:57:21.470Z,20.66
2018-06-18T08:58:21.466Z,20.66
2018-06-18T08:59:21.427Z,20.89
2018-06-18T09:00:21.420Z,21.06
2018-06-18T09:01:21.480Z,21.19
2018-06-18T09:02:21.435Z,21.20
2018-06-18T09:03:21.550Z,21.21
2018-06-18T09:04:21.437Z,21.14
2018-06-18T09:05:21.444Z,21.14
2018-06-18T09:06:21.455Z,21.04
2018-06-18T09:07:21.526Z,21.14
2018-06-18T09:08:21.463Z,21.08
2018-06-18T09:09:21.486Z,21.04
2018-06-18T09:10:21.510Z,21.05
2018-06-18T09:11:21.498Z,21.17
2018-06-18T09:12:21.497Z,21.17
2018-06-18T09:13:21.776Z,21.16
2018-06-18T09:14:21.511Z,21.29
2018-06-18T09:15:21.716Z,21.26
2018-06-18T09:16:21.646Z,21.29
2018-06-18T09:17:21.638Z,21.42
2018-06-18T09:18:21.530Z,21.39
2018-06-18T09:19:21.593Z,21.69
2018-06-18T09:20:21.548Z,21.90
2018-06-18T09:21:21.567Z,22.09
2018-06-18T09:22:21.539Z,22.29
2018-06-18T09:23:21.559Z,22.34
2018-06-18T09:24:21.673Z,21.99
2018-06-18T09:25:21.658Z,22.06
2018-06-18T09:26:21.566Z,22.06
2018-06-18T09:27:21.604Z,22.12
2018-06-18T09:28:21.750Z,22.28
2018-06-18T09:29:21.693Z,22.27
2018-06-18T09:30:21.616Z,22.41
2018-06-18T09:31:21.729Z,22.50
2018-06-18T09:32:21.822Z,22.71
2018-06-18T09:33:21.654Z,22.71
2018-06-18T09:34:21.610Z,22.72
2018-06-18T09:35:21.682Z,22.80
2018-06-18T09:36:21.690Z,22.83
2018-06-18T09:37:21.735Z,22.78
2018-06-18T09:38:21.699Z,22.56
2018-06-18T09:39:21.667Z,22.53
2018-06-18T09:40:21.760Z,22.41
2018-06-18T09:41:21.647Z,22.53
2018-06-18T09:42:21.680Z,22.93
2018-06-18T09:43:21.697Z,22.87
2018-06-18T09:44:21.661Z,22.89
2018-06-18T09:45:21.675Z,22.89
2018-06-18T09:46:21.687Z,22.89
2018-06-18T09:47:21.720Z,22.92
2018-06-18T09:48:21.691Z,22.82
2018-06-18T09:49:21.707Z,22.89
2018-06-18T09:50:21.726Z,22.94
2018-06-18T09:51:21.722Z,23.09
2018-06-18T09:52:21.717Z,23.32
2018-06-18T09:53:21.719Z,23.38
2018-06-18T09:54:21.724Z,23.46
2018-06-18T09:55:21.764Z,23.75
2018-06-18T09:56:21.756Z,24.17
2018-06-18T09:57:21.781Z,24.19
2018-06-18T09:58:21.777Z,24.22
2018-06-18T09:59:21.759Z,24.26
2018-06-18T10:00:21.827Z,24.13
2018-06-18T10:01:21.769Z,23.68
2018-06-18T10:02:21.853Z,23.53
2018-06-18T10:03:21.782Z,23.31
2018-06-18T10:04:21.788Z,23.35
2018-06-18T10:05:21.797Z,23.62
2018-06-18T10:06:21.871Z,23.83
2018-06-18T10:07:21.848Z,24.14
2018-06-18T10:08:21.839Z,24.16
2018-06-18T10:09:21.991Z,24.20
2018-06-18T10:10:21.830Z,24.19
2018-06-18T10:11:21.892Z,24.12
2018-06-18T10:12:22.154Z,24.10
2018-06-18T10:13:21.933Z,23.98
2018-06-18T10:14:21.857Z,23.92
2018-06-18T10:15:21.885Z,23.97
2018-06-18T10:16:21.867Z,24.19
2018-06-18T10:17:21.904Z,24.29
2018-06-18T10:18:21.903Z,24.41
2018-06-18T10:19:21.930Z,24.61
2018-06-18T10:20:21.921Z,24.75
2018-06-18T10:21:21.907Z,24.94
2018-06-18T10:22:21.981Z,24.98
2018-06-18T10:23:21.972Z,24.98
2018-06-18T10:24:22.079Z,24.97
2018-06-18T10:25:22.067Z,25.16
2018-06-18T10:26:22.182Z,25.12
2018-06-18T10:27:21.968Z,25.06
2018-06-18T10:28:22.029Z,25.02
2018-06-18T10:29:22.097Z,25.07
2018-06-18T10:30:22.119Z,25.42
2018-06-18T10:31:21.988Z,25.42
2018-06-18T10:32:21.983Z,25.61
2018-06-18T10:33:22.049Z,25.64
2018-06-18T10:34:22.017Z,25.59
2018-06-18T10:35:21.992Z,25.68
2018-06-18T10:36:22.032Z,25.67
2018-06-18T10:37:22.042Z,25.64
2018-06-18T10:38:22.062Z,25.69
2018-06-18T10:39:22.102Z,25.75
2018-06-18T10:40:22.071Z,25.90
2018-06-18T10:41:22.067Z,26.06
2018-06-18T10:42:22.156Z,26.22
2018-06-18T10:43:22.048Z,26.32
2018-06-18T10:44:22.086Z,26.57
2018-06-18T10:45:24.641Z,26.69
2018-06-18T10:46:22.067Z,26.80
2018-06-18T10:47:22.074Z,26.95
2018-06-18T10:48:22.088Z,26.76
2018-06-18T10:49:22.132Z,26.94
2018-06-18T10:50:22.327Z,26.86
2018-06-18T10:51:22.182Z,26.81
2018-06-18T10:52:22.114Z,26.84
2018-06-18T10:53:22.116Z,26.86
2018-06-18T10:54:22.128Z,26.69
2018-06-18T10:55:22.177Z,26.50
2018-06-18T10:56:22.297Z,26.42
2018-06-18T10:57:22.202Z,26.22
2018-06-18T10:58:22.159Z,26.06
2018-06-18T10:59:22.163Z,25.80
2018-06-18T11:00:22.172Z,25.64
2018-06-18T11:01:22.635Z,25.47
2018-06-18T11:02:22.193Z,25.24
2018-06-18T11:03:22.194Z,25.39
2018-06-18T11:04:22.204Z,25.43
2018-06-18T11:05:22.235Z,25.30
2018-06-18T11:06:22.395Z,25.27
2018-06-18T11:07:22.266Z,25.50
2018-06-18T11:08:22.230Z,25.53
2018-06-18T11:09:22.258Z,25.65
2018-06-18T11:10:22.274Z,25.77
2018-06-18T11:11:22.256Z,25.93
2018-06-18T11:12:22.285Z,26.06
2018-06-18T11:13:22.300Z,26.09
2018-06-18T11:14:22.292Z,25.93
2018-06-18T11:15:22.285Z,25.47
2018-06-18T11:16:22.584Z,25.15
2018-06-18T11:17:22.576Z,24.80
2018-06-18T11:18:22.344Z,24.77
2018-06-18T11:21:17.681Z,24.87
2018-06-18T11:22:17.689Z,25.06
2018-06-18T11:24:15.057Z,25.07
2018-06-18T11:25:09.801Z,25.09
2018-06-18T11:26:09.748Z,24.97
2018-06-18T11:27:09.803Z,25.07
2018-06-18T11:28:09.253Z,24.91
2018-06-18T11:29:09.048Z,24.68
2018-06-18T11:30:09.157Z,24.79
2018-06-18T11:31:08.798Z,24.85
2018-06-18T11:32:08.787Z,25.02
2018-06-18T11:33:08.779Z,25.13
2018-06-18T11:34:08.812Z,25.09
2018-06-18T11:35:08.809Z,25.16
2018-06-18T11:36:08.820Z,25.06
2018-06-18T11:37:08.824Z,24.67
2018-06-18T11:38:08.819Z,24.57
2018-06-18T11:39:08.810Z,24.61
2018-06-18T11:40:08.811Z,24.71
2018-06-18T11:41:08.824Z,24.94
2018-06-18T11:42:08.849Z,24.98
2018-06-18T11:43:08.835Z,25.00
2018-06-18T11:44:08.846Z,24.75
2018-06-18T11:45:08.914Z,24.80
2018-06-18T11:46:08.859Z,24.90
2018-06-18T11:47:08.907Z,25.05
2018-06-18T11:48:08.937Z,25.07
2018-06-18T11:49:08.909Z,25.00
2018-06-18T11:50:08.912Z,24.92
2018-06-18T11:51:08.954Z,24.71
2018-06-18T11:52:08.969Z,24.88
2018-06-18T11:53:08.907Z,25.00
2018-06-18T11:54:09.044Z,25.13
2018-06-18T11:55:08.930Z,25.05
2018-06-18T11:56:09.083Z,24.97
2018-06-18T11:57:08.931Z,24.87
2018-06-18T11:58:08.977Z,24.57
2018-06-18T11:59:08.945Z,24.56
2018-06-18T12:00:09.063Z,24.31
2018-06-18T12:01:08.959Z,24.14
2018-06-18T12:02:08.994Z,24.23
2018-06-18T12:03:09.058Z,24.49
2018-06-18T12:04:09.012Z,24.34
2018-06-18T12:05:09.021Z,24.31
2018-06-18T12:06:09.020Z,24.27
2018-06-18T12:07:09.181Z,24.54
2018-06-18T12:08:09.050Z,24.82
2018-06-18T12:09:09.078Z,25.01
2018-06-18T12:10:09.246Z,24.75
2018-06-18T12:11:09.055Z,24.77
2018-06-18T12:12:09.061Z,24.79
2018-06-18T12:13:09.066Z,24.56
2018-06-18T12:14:09.095Z,24.67
2018-06-18T12:15:09.082Z,24.54
2018-06-18T12:16:09.065Z,24.64
2018-06-18T12:17:09.283Z,25.02
2018-06-18T12:18:09.079Z,25.31
2018-06-18T12:19:09.109Z,25.68
2018-06-18T12:20:09.091Z,25.82
2018-06-18T12:21:09.098Z,25.64
2018-06-18T12:22:09.117Z,25.39
2018-06-18T12:23:09.114Z,25.46
2018-06-18T12:24:09.117Z,25.39
2018-06-18T12:25:11.710Z,25.37
2018-06-18T12:26:09.139Z,25.42
2018-06-18T12:27:09.135Z,25.64
2018-06-18T12:28:09.158Z,25.71
2018-06-18T12:29:09.148Z,25.67
2018-06-18T12:30:09.163Z,26.02
2018-06-18T12:31:09.195Z,26.42
2018-06-18T12:32:09.185Z,26.50
2018-06-18T12:33:09.176Z,26.46
2018-06-18T12:34:09.184Z,26.29
2018-06-18T12:35:10.051Z,25.90
2018-06-18T12:36:09.198Z,25.61
2018-06-18T12:37:09.391Z,25.17
2018-06-18T12:38:09.327Z,24.98
2018-06-18T12:39:09.456Z,24.92
2018-06-18T12:40:09.252Z,24.85
2018-06-18T12:41:09.282Z,24.82
2018-06-18T12:42:09.263Z,25.07
2018-06-18T12:43:09.267Z,25.15
2018-06-18T12:44:09.295Z,25.20
2018-06-18T12:45:09.334Z,25.13
2018-06-18T12:46:09.269Z,25.02
2018-06-18T12:47:09.300Z,24.77
2018-06-18T12:48:09.282Z,24.68
2018-06-18T12:49:09.357Z,24.52
2018-06-18T12:50:09.299Z,24.26
2018-06-18T12:51:09.310Z,24.05
2018-06-18T12:52:09.309Z,24.02
2018-06-18T12:53:11.311Z,24.07
2018-06-18T12:54:09.348Z,24.10
2018-06-18T12:55:09.328Z,24.05
2018-06-18T12:56:09.365Z,23.98
2018-06-18T12:57:09.378Z,23.97
2018-06-18T12:58:09.349Z,23.85
2018-06-18T12:59:09.387Z,23.76
2018-06-18T13:00:09.361Z,23.76
2018-06-18T13:01:09.372Z,23.55
2018-06-18T13:02:09.390Z,23.64
2018-06-18T13:03:09.383Z,23.64
2018-06-18T13:04:09.393Z,23.57
2018-06-18T13:05:09.409Z,23.64
2018-06-18T13:06:09.401Z,23.43
2018-06-18T13:07:09.454Z,23.34
2018-06-18T13:08:09.429Z,23.39
2018-06-18T13:09:09.485Z,23.24